KELM/ELM METAR and TAF weather

Enter ICAO airport designator
Station Type Date Time Source
KELM METAR 2018/12/10 19:53 UTC NOAA

KELM 101953Z 34006KT 10SM SCT032 01/M07 A3014 RMK AO2 SLP219 T00111067


Station Type Date Time Source
KELM Decoded METAR 2018/12/10 19:53 UTC NOAA

ELMIRA COUNTY AIRPORT, NY, United States (KELM) 42-10N 76-54W 302M
Dec 10, 2018 - 02:53 PM EST / 2018.12.10 1953 UTC
Wind: from the NNW (340 degrees) at 7 MPH (6 KT):0
Visibility: 10 mile(s):0
Sky conditions: partly cloudy
Temperature: 34.0 F (1.1 C)
Windchill: 28 F (-2 C):1
Dew Point: 19.9 F (-6.7 C)
Relative Humidity: 55%
Pressure (altimeter): 30.14 in. Hg (1020 hPa)
ob: KELM 101953Z 34006KT 10SM SCT032 01/M07 A3014 RMK AO2 SLP219 T00111067
cycle: 20

Station Type Date Time Source
KELM TAF 2018/12/10 20:40 UTC NOAA

TAF
AMD KELM 101938Z 1020/1118 33006KT P6SM BKN035
FM110100 VRB04KT P6SM OVC025
FM111100 20005KT P6SM BKN035
FM111500 22006KT P6SM SCT140


Example: see airport list